Time;durP1;ratioP1;P1;durP2;ratioP2;P2;SDS_P1;SDS_P2;PMS_P1;PMS_P2;Temp;Humidity;BMP_temperature;BMP_pressure;BME280_temperature;BME280_humidity;BME280_pressure;Samples;Min_cycle;Max_cycle;Signal;HPM_P1;HPM_P2
2021/03/28 00:00:59;;;;;;;18.67;4.13;;;4.30;84.60;;;;;;5091822;28;20028;-82
2021/03/28 00:03:36;;;;;;;19.15;4.20;;;4.20;85.40;;;;;;5099997;28;20052;-81
2021/03/28 00:06:24;;;;;;;20.75;4.78;;;4.30;84.90;;;;;;5094403;27;20099;-81
2021/03/28 00:09:12;;;;;;;15.77;3.97;;;4.30;85.00;;;;;;5094716;28;20071;-81
2021/03/28 00:12:01;;;;;;;25.05;4.55;;;4.30;85.00;;;;;;5094782;27;20035;-81
2021/03/28 00:14:36;;;;;;;16.65;3.70;;;4.40;85.20;;;;;;5104758;28;20031;-82
2021/03/28 00:17:19;;;;;;;17.40;4.95;;;4.40;85.10;;;;;;5079490;28;20067;-81
2021/03/28 00:20:08;;;;;;;16.92;4.15;;;4.40;85.20;;;;;;5095644;27;20486;-80
2021/03/28 00:23:03;;;;;;;21.00;3.95;;;4.40;85.30;;;;;;5105501;28;20032;-81
2021/03/28 00:25:42;;;;;;;23.63;4.70;;;4.50;85.50;;;;;;5103893;27;20099;-80
2021/03/28 00:28:21;;;;;;;16.17;3.97;;;4.40;85.40;;;;;;5101458;28;20035;-81
2021/03/28 00:30:49;;;;;;;23.25;3.72;;;4.50;85.60;;;;;;5083858;28;20035;-81
2021/03/28 00:33:25;;;;;;;18.52;4.15;;;4.40;86.10;;;;;;5065552;28;20465;-80
2021/03/28 00:35:57;;;;;;;23.58;4.75;;;4.40;85.80;;;;;;5087174;28;20028;-81
2021/03/28 00:38:31;;;;;;;25.02;4.90;;;4.40;86.00;;;;;;5097898;27;20486;-81
2021/03/28 00:41:20;;;;;;;20.70;4.47;;;4.40;86.10;;;;;;5086546;28;20374;-81
2021/03/28 00:44:19;;;;;;;13.00;3.45;;;4.40;86.10;;;;;;5090481;28;20038;-81
2021/03/28 00:46:52;;;;;;;22.50;4.53;;;4.40;86.40;;;;;;5091932;28;20039;-81
2021/03/28 00:49:30;;;;;;;23.20;4.63;;;4.40;86.50;;;;;;5092940;28;20110;-81
2021/03/28 00:52:00;;;;;;;17.35;4.20;;;4.40;86.70;;;;;;5095386;28;20682;-81
2021/03/28 00:54:44;;;;;;;25.50;4.53;;;4.40;87.60;;;;;;5095863;28;20093;-81
2021/03/28 00:57:37;;;;;;;21.48;4.82;;;4.40;87.10;;;;;;5092441;28;20519;-81
2021/03/28 01:00:18;;;;;;;22.05;4.25;;;4.40;87.40;;;;;;5095234;28;20104;-80
2021/03/28 01:03:30;;;;;;;25.77;4.80;;;4.40;87.60;;;;;;5082814;28;20032;-81
2021/03/28 01:06:00;;;;;;;21.23;4.35;;;4.40;87.80;;;;;;5081027;28;20035;-77
2021/03/28 01:08:40;;;;;;;22.38;4.75;;;4.40;87.70;;;;;;5083515;28;20036;-81
2021/03/28 01:11:40;;;;;;;18.20;4.25;;;4.40;87.70;;;;;;5081295;28;20125;-80
2021/03/28 01:14:36;;;;;;;25.75;5.22;;;4.40;88.10;;;;;;5085270;28;20437;-82
2021/03/28 01:17:21;;;;;;;17.30;4.32;;;4.40;89.00;;;;;;5079952;28;20104;-81
2021/03/28 01:19:58;;;;;;;24.42;5.03;;;4.50;88.70;;;;;;5080996;28;20498;-80
2021/03/28 01:23:16;;;;;;;31.42;5.03;;;4.50;88.50;;;;;;5088468;28;20052;-82
2021/03/28 01:25:48;;;;;;;18.80;4.82;;;4.50;88.70;;;;;;5060284;28;20127;-81
2021/03/28 01:28:19;;;;;;;29.08;5.63;;;4.50;88.80;;;;;;5095008;28;20135;-81
2021/03/28 01:30:52;;;;;;;22.83;5.28;;;4.50;89.00;;;;;;5068484;28;20081;-81
2021/03/28 01:33:47;;;;;;;28.05;5.05;;;4.50;89.10;;;;;;5075956;28;20127;-80
2021/03/28 01:36:25;;;;;;;24.40;5.40;;;4.60;89.20;;;;;;5076823;28;20042;-81
2021/03/28 01:39:07;;;;;;;26.13;4.60;;;4.60;89.30;;;;;;5079884;28;20458;-81
2021/03/28 01:41:44;;;;;;;24.15;4.78;;;4.50;89.30;;;;;;5082355;28;20381;-81
2021/03/28 01:44:18;;;;;;;24.48;5.13;;;4.50;89.40;;;;;;5086554;28;20586;-80
2021/03/28 01:47:05;;;;;;;19.73;4.63;;;4.50;90.00;;;;;;5062303;28;20470;-80
2021/03/28 01:50:08;;;;;;;25.40;4.80;;;4.50;89.70;;;;;;5078927;28;21635;-81
2021/03/28 01:52:53;;;;;;;22.05;5.70;;;4.50;89.70;;;;;;5089968;28;20059;-81
2021/03/28 01:55:35;;;;;;;21.67;4.70;;;4.50;89.70;;;;;;5092621;28;20111;-82
2021/03/28 01:58:20;;;;;;;24.77;4.97;;;4.50;89.80;;;;;;5156240;22;20044;-78
2021/03/28 02:01:01;;;;;;;23.17;4.13;;;4.50;89.80;;;;;;5075115;28;20134;-78
2021/03/28 02:03:52;;;;;;;22.98;5.68;;;4.50;90.20;;;;;;5066926;28;20047;-78
2021/03/28 02:06:43;;;;;;;23.13;4.60;;;4.50;90.00;;;;;;5061867;28;20990;-80
2021/03/28 02:09:31;;;;;;;23.23;4.63;;;4.50;90.00;;;;;;5061545;28;20094;-78
2021/03/28 02:12:21;;;;;;;23.85;6.15;;;4.40;89.90;;;;;;5066844;28;20036;-79
2021/03/28 02:15:21;;;;;;;20.00;4.32;;;4.40;90.00;;;;;;5067889;28;20045;-80
2021/03/28 02:17:49;;;;;;;27.45;5.57;;;4.40;90.00;;;;;;5078391;28;20101;-80
2021/03/28 02:20:37;;;;;;;17.48;4.43;;;4.40;90.00;;;;;;5077588;28;20043;-79
2021/03/28 02:23:35;;;;;;;19.77;4.18;;;4.40;90.10;;;;;;5084488;28;20051;-79
2021/03/28 02:26:19;;;;;;;25.58;5.45;;;4.40;90.10;;;;;;5078641;28;20036;-79
2021/03/28 02:28:51;;;;;;;22.35;4.35;;;4.30;90.10;;;;;;5085006;28;20515;-78
2021/03/28 02:31:34;;;;;;;21.02;5.47;;;4.30;90.10;;;;;;5075944;28;20067;-79
2021/03/28 02:34:15;;;;;;;;;;;4.30;90.50;;;;;;5085280;28;20479;-78
2021/03/28 02:36:56;;;;;;;23.58;5.00;;;4.30;90.20;;;;;;5071701;28;19932;-82
2021/03/28 02:39:28;;;;;;;12.75;5.00;;;4.30;90.10;;;;;;5065284;28;20036;-79
2021/03/28 02:42:02;;;;;;;22.67;4.57;;;4.30;90.20;;;;;;5066812;28;20409;-78
2021/03/28 02:44:49;;;;;;;21.35;4.65;;;4.30;90.20;;;;;;5065287;28;20402;-79
2021/03/28 02:47:36;;;;;;;28.08;5.35;;;4.30;90.20;;;;;;5064678;28;20103;-80
2021/03/28 02:50:39;;;;;;;18.60;5.20;;;4.30;90.30;;;;;;5068378;28;21183;-79
2021/03/28 02:53:27;;;;;;;22.30;5.47;;;4.30;90.30;;;;;;5067456;28;20095;-79
2021/03/28 02:56:05;;;;;;;27.65;5.68;;;4.30;90.30;;;;;;5075323;28;20132;-80
2021/03/28 02:58:39;;;;;;;23.60;5.38;;;4.30;90.30;;;;;;5068288;28;20460;-79
2021/03/28 03:01:44;;;;;;;17.58;5.05;;;4.30;90.30;;;;;;5080485;28;20032;-79
2021/03/28 03:04:43;;;;;;;21.63;5.57;;;4.40;90.40;;;;;;5080329;28;20031;-77
2021/03/28 03:07:28;;;;;;;23.60;4.60;;;4.40;90.30;;;;;;5064427;28;20088;-78
2021/03/28 03:09:54;;;;;;;19.83;5.55;;;4.50;90.30;;;;;;5065390;28;20111;-79
2021/03/28 03:12:41;;;;;;;20.05;4.22;;;4.50;90.20;;;;;;5067189;28;20036;-79
2021/03/28 03:16:11;;;;;;;29.50;4.43;;;4.60;90.20;;;;;;5065657;28;20145;-78
2021/03/28 03:18:55;;;;;;;26.55;5.55;;;4.60;90.10;;;;;;5010690;28;20095;-79
2021/03/28 03:21:26;;;;;;;20.48;5.18;;;4.70;90.10;;;;;;5063544;28;20043;-79
2021/03/28 03:24:11;;;;;;;23.48;6.28;;;4.70;90.10;;;;;;5069476;28;20566;-79
2021/03/28 03:26:49;;;;;;;16.83;5.15;;;4.60;90.00;;;;;;5082244;28;20042;-78
2021/03/28 03:29:39;;;;;;;22.88;4.55;;;4.70;90.00;;;;;;5072002;28;20107;-78
2021/03/28 03:32:14;;;;;;;26.08;5.50;;;4.70;90.00;;;;;;5063854;28;20035;-78
2021/03/28 03:34:57;;;;;;;15.48;4.80;;;4.70;89.90;;;;;;5066890;28;20040;-78
2021/03/28 03:37:31;;;;;;;23.95;4.70;;;4.80;89.80;;;;;;5070191;28;20043;-78
2021/03/28 03:40:29;;;;;;;27.98;5.50;;;4.80;89.70;;;;;;5071594;28;20032;-78
2021/03/28 03:43:32;;;;;;;17.63;4.85;;;4.80;89.70;;;;;;5077931;28;20093;-81
2021/03/28 03:46:17;;;;;;;21.35;5.60;;;4.90;89.70;;;;;;5073257;28;20401;-77
2021/03/28 03:49:28;;;;;;;20.73;5.80;;;4.90;89.60;;;;;;5075704;28;20032;-78
2021/03/28 03:51:59;;;;;;;14.05;4.68;;;4.90;89.70;;;;;;5059496;28;20051;-79
2021/03/28 03:54:30;;;;;;;25.17;5.85;;;4.90;89.60;;;;;;5082867;28;20077;-78
2021/03/28 03:57:12;;;;;;;17.58;5.18;;;4.90;89.60;;;;;;5077986;28;20118;-77
2021/03/28 03:59:49;;;;;;;21.45;5.63;;;5.00;89.70;;;;;;5059398;28;20111;-78
2021/03/28 04:02:53;;;;;;;24.92;6.00;;;5.00;89.70;;;;;;5078788;28;20044;-77
2021/03/28 04:05:40;;;;;;;17.10;4.70;;;5.00;89.80;;;;;;5043864;28;20560;-80
2021/03/28 04:08:30;;;;;;;15.40;4.57;;;5.00;89.70;;;;;;5078928;28;20083;-79
2021/03/28 04:11:26;;;;;;;18.30;5.28;;;5.00;89.90;;;;;;5079173;28;20067;-80
2021/03/28 04:14:17;;;;;;;26.52;6.18;;;4.90;89.80;;;;;;5070218;28;20119;-79
2021/03/28 04:16:43;;;;;;;23.98;5.65;;;4.90;89.90;;;;;;5069041;28;20143;-77
2021/03/28 04:19:21;;;;;;;21.20;5.43;;;4.90;89.90;;;;;;5077154;28;20127;-79
2021/03/28 04:22:06;;;;;;;20.95;5.70;;;4.90;90.00;;;;;;5078049;28;20035;-80
2021/03/28 04:24:53;;;;;;;25.70;5.95;;;4.90;90.00;;;;;;5078053;28;20032;-78
2021/03/28 04:27:41;;;;;;;21.02;6.22;;;4.80;90.00;;;;;;5079757;28;20425;-80
2021/03/28 04:30:39;;;;;;;25.10;6.82;;;4.80;90.10;;;;;;5071777;28;20071;-77
2021/03/28 04:33:28;;;;;;;20.95;5.25;;;4.80;90.20;;;;;;5078643;28;20481;-79
2021/03/28 04:36:19;;;;;;;20.17;5.40;;;4.70;90.20;;;;;;5066213;28;20032;-79
2021/03/28 04:39:04;;;;;;;15.77;5.57;;;4.70;90.20;;;;;;5066189;28;20040;-78
2021/03/28 04:41:42;;;;;;;20.25;5.85;;;4.70;90.30;;;;;;5066427;28;20644;-79
2021/03/28 04:44:17;;;;;;;22.92;5.85;;;4.60;90.30;;;;;;5057774;28;20036;-79
2021/03/28 04:46:54;;;;;;;25.33;5.68;;;4.60;90.40;;;;;;5065625;28;20041;-78
2021/03/28 04:49:35;;;;;;;19.50;5.80;;;4.50;90.40;;;;;;5071982;28;20333;-80
2021/03/28 04:52:46;;;;;;;13.65;5.40;;;4.50;90.50;;;;;;5058343;28;20047;-78
2021/03/28 04:55:33;;;;;;;21.33;6.38;;;4.50;90.60;;;;;;5077197;28;20526;-79
2021/03/28 04:58:43;;;;;;;18.95;5.78;;;4.40;90.60;;;;;;5077469;28;20043;-78
2021/03/28 05:01:27;;;;;;;24.92;6.38;;;4.40;90.70;;;;;;5071853;28;20032;-79
2021/03/28 05:03:56;;;;;;;21.83;6.07;;;4.40;90.70;;;;;;5066880;28;20123;-77
2021/03/28 05:06:49;;;;;;;23.42;6.40;;;4.30;90.80;;;;;;5066619;28;20039;-78
2021/03/28 05:09:28;;;;;;;22.08;6.38;;;4.30;90.90;;;;;;5064057;28;20044;-77
2021/03/28 05:12:38;;;;;;;19.90;6.28;;;4.30;90.90;;;;;;5065131;28;20067;-78
2021/03/28 05:15:22;;;;;;;26.48;7.20;;;4.30;91.00;;;;;;5076237;28;20040;-80
2021/03/28 05:18:25;;;;;;;24.45;6.65;;;4.30;91.00;;;;;;5077151;28;20032;-79
2021/03/28 05:21:22;;;;;;;24.50;6.35;;;4.30;91.10;;;;;;5076215;28;20451;-77
2021/03/28 05:24:07;;;;;;;23.40;6.75;;;4.30;91.00;;;;;;5079666;28;20549;-79
2021/03/28 05:26:54;;;;;;;25.73;6.13;;;4.30;91.10;;;;;;5077054;28;20025;-79
2021/03/28 05:29:34;;;;;;;20.65;6.75;;;4.30;91.20;;;;;;5075856;28;20043;-78
2021/03/28 05:32:48;;;;;;;28.50;6.80;;;4.30;91.20;;;;;;5068813;28;20032;-79
2021/03/28 05:35:32;;;;;;;21.70;6.60;;;4.40;91.30;;;;;;5063933;28;20119;-77
2021/03/28 05:38:10;;;;;;;21.77;6.85;;;4.40;91.30;;;;;;5062920;28;20501;-78
2021/03/28 05:41:01;;;;;;;27.55;7.03;;;4.40;91.30;;;;;;5062247;28;20102;-79
2021/03/28 05:43:37;;;;;;;26.30;6.72;;;4.50;91.40;;;;;;5070384;28;20418;-79
2021/03/28 05:46:40;;;;;;;18.20;5.68;;;4.60;91.40;;;;;;5075890;28;20564;-79
2021/03/28 05:49:36;;;;;;;17.88;5.80;;;4.60;91.40;;;;;;5076141;28;20033;-77
2021/03/28 05:52:33;;;;;;;23.60;6.68;;;4.70;91.30;;;;;;5076514;28;20127;-78
2021/03/28 05:55:43;;;;;;;20.85;6.05;;;4.90;91.30;;;;;;5079719;28;20060;-78
2021/03/28 05:58:37;;;;;;;20.23;5.68;;;4.90;91.30;;;;;;5069924;28;20524;-79
2021/03/28 06:01:30;;;;;;;27.50;5.97;;;4.90;91.10;;;;;;5076776;28;20029;-80
2021/03/28 06:04:17;;;;;;;21.10;5.55;;;5.10;91.20;;;;;;5078781;28;20502;-77
2021/03/28 06:06:57;;;;;;;24.58;6.03;;;5.10;91.10;;;;;;5064973;28;20062;-81
2021/03/28 06:09:34;;;;;;;16.90;5.20;;;5.10;91.20;;;;;;5070998;28;20718;-77
2021/03/28 06:12:30;;;;;;;25.30;5.72;;;5.20;91.20;;;;;;5051211;28;20145;-79
2021/03/28 06:15:25;;;;;;;18.83;5.15;;;5.30;91.20;;;;;;5069905;28;20245;-77
2021/03/28 06:18:18;;;;;;;18.48;5.30;;;5.50;91.20;;;;;;5066954;28;20469;-77
2021/03/28 06:21:24;;;;;;;20.42;4.95;;;5.60;91.40;;;;;;5066953;28;20501;-79
2021/03/28 06:24:27;;;;;;;23.90;5.25;;;5.70;91.00;;;;;;5079805;28;20318;-78
2021/03/28 06:27:11;;;;;;;21.42;5.07;;;5.80;90.80;;;;;;5067165;28;20124;-80
2021/03/28 06:30:23;;;;;;;16.98;4.90;;;6.00;90.80;;;;;;5068343;28;20047;-78
2021/03/28 06:33:22;;;;;;;20.27;5.15;;;6.00;90.70;;;;;;5082643;28;20039;-80
2021/03/28 06:36:07;;;;;;;12.35;3.88;;;6.10;90.60;;;;;;5081119;28;20029;-79
2021/03/28 06:38:51;;;;;;;16.25;4.93;;;6.20;90.60;;;;;;5055775;28;20514;-80
2021/03/28 06:41:38;;;;;;;23.05;5.18;;;6.20;90.50;;;;;;5080902;28;20248;-80
2021/03/28 06:44:32;;;;;;;19.10;4.63;;;6.30;90.40;;;;;;5069456;28;20332;-78
2021/03/28 06:47:20;;;;;;;15.35;4.53;;;6.40;90.40;;;;;;5079746;28;20112;-78
2021/03/28 06:50:20;;;;;;;20.40;4.80;;;6.50;90.40;;;;;;5068343;28;20101;-79
2021/03/28 06:53:04;;;;;;;16.60;4.25;;;6.60;90.40;;;;;;5069119;28;20051;-78
2021/03/28 06:55:33;;;;;;;17.85;4.30;;;6.70;90.30;;;;;;5076053;28;20028;-79
2021/03/28 06:58:30;;;;;;;15.82;3.60;;;6.90;90.20;;;;;;5075888;28;20032;-78
2021/03/28 07:01:08;;;;;;;12.75;3.28;;;7.00;90.10;;;;;;5071208;28;20036;-78
2021/03/28 07:03:39;;;;;;;16.08;3.95;;;7.00;90.00;;;;;;5078984;28;20040;-78
2021/03/28 07:06:31;;;;;;;26.90;4.28;;;7.10;89.70;;;;;;5093141;28;20036;-80
2021/03/28 07:09:37;;;;;;;16.05;3.60;;;7.20;89.40;;;;;;5074630;28;20225;-78
2021/03/28 07:12:41;;;;;;;19.10;3.60;;;7.30;89.10;;;;;;5096446;28;20348;-80
2021/03/28 07:15:19;;;;;;;13.95;2.92;;;7.40;88.80;;;;;;5081415;28;20089;-77
2021/03/28 07:17:54;;;;;;;13.77;2.75;;;7.50;88.30;;;;;;5076884;28;20059;-77
2021/03/28 07:21:02;;;;;;;13.05;3.53;;;7.50;88.20;;;;;;5078475;28;20121;-79
2021/03/28 07:23:48;;;;;;;16.80;3.28;;;7.60;88.00;;;;;;5073772;28;20590;-79
2021/03/28 07:26:44;;;;;;;15.40;3.35;;;7.60;87.90;;;;;;5079748;28;20044;-78
2021/03/28 07:29:28;;;;;;;15.18;2.95;;;7.70;87.90;;;;;;5080367;28;20058;-79
2021/03/28 07:32:17;;;;;;;12.68;2.85;;;7.70;87.50;;;;;;5085056;28;20043;-81
2021/03/28 07:35:22;;;;;;;16.67;3.08;;;7.70;87.10;;;;;;5077785;28;20039;-80
2021/03/28 07:38:11;;;;;;;17.77;3.25;;;7.80;87.30;;;;;;5080442;28;20039;-80
2021/03/28 07:40:49;;;;;;;14.80;3.35;;;7.90;87.00;;;;;;5085320;28;20039;-77
2021/03/28 07:44:11;;;;;;;12.65;2.72;;;8.00;86.80;;;;;;5084191;28;20031;-78
2021/03/28 07:46:45;;;;;;;;;;;8.00;86.60;;;;;;5086185;28;20036;-80
2021/03/28 07:49:36;;;;;;;18.63;3.83;;;8.10;86.40;;;;;;5091566;28;19923;-76
2021/03/28 07:52:17;;;;;;;18.80;3.15;;;8.20;86.70;;;;;;5087683;28;20448;-79
2021/03/28 07:54:57;;;;;;;13.70;3.58;;;8.20;86.50;;;;;;5091457;28;20036;-78
2021/03/28 07:57:38;;;;;;;10.88;2.92;;;8.30;86.40;;;;;;5089994;28;20470;-78
2021/03/28 08:00:13;;;;;;;20.38;3.50;;;8.40;86.00;;;;;;5130594;22;20407;-81
2021/03/28 08:03:03;;;;;;;12.50;3.00;;;8.30;85.80;;;;;;5057892;28;20056;-79
2021/03/28 08:06:07;;;;;;;10.30;3.25;;;8.40;85.50;;;;;;5046776;28;20280;-79
2021/03/28 08:08:47;;;;;;;17.65;3.40;;;8.50;85.50;;;;;;5041986;28;20037;-79
2021/03/28 08:11:36;;;;;;;13.48;2.88;;;8.50;85.20;;;;;;5039489;28;20032;-78
2021/03/28 08:14:40;;;;;;;16.83;3.85;;;8.70;85.30;;;;;;5039709;28;20107;-79
2021/03/28 08:17:24;;;;;;;15.90;3.17;;;8.80;85.10;;;;;;5019723;28;20442;-78
2021/03/28 08:20:25;;;;;;;9.82;2.38;;;9.00;84.80;;;;;;5034208;28;20063;-79
2021/03/28 08:23:25;;;;;;;19.13;3.30;;;9.10;84.00;;;;;;5016203;28;20544;-79
2021/03/28 08:26:21;;;;;;;13.57;3.00;;;9.30;83.60;;;;;;5032906;28;20041;-78
2021/03/28 08:29:12;;;;;;;12.32;2.92;;;9.40;83.50;;;;;;5051466;28;20421;-79
2021/03/28 08:31:55;;;;;;;12.98;2.88;;;9.60;83.10;;;;;;5016150;28;20047;-80
2021/03/28 08:34:56;;;;;;;14.30;3.00;;;9.60;82.30;;;;;;5047351;28;20049;-80
2021/03/28 08:37:55;;;;;;;14.00;2.97;;;9.70;81.40;;;;;;5041869;28;20033;-79
2021/03/28 08:40:59;;;;;;;18.30;3.22;;;9.80;82.90;;;;;;5021785;28;20044;-80
2021/03/28 08:43:30;;;;;;;;;;;9.80;81.30;;;;;;5024635;28;20049;-79
2021/03/28 08:46:15;;;;;;;18.85;3.22;;;9.80;80.50;;;;;;5028017;28;19955;-79
2021/03/28 08:48:40;;;;;;;11.35;3.03;;;9.90;81.20;;;;;;5038206;28;20037;-79
2021/03/28 08:51:26;;;;;;;13.70;2.80;;;9.90;81.50;;;;;;5040592;28;20044;-79
2021/03/28 08:54:11;;;;;;;15.95;3.25;;;9.90;81.20;;;;;;5030706;28;20065;-80
2021/03/28 08:56:59;;;;;;;16.70;4.05;;;9.90;81.40;;;;;;5039694;28;20420;-79
2021/03/28 08:59:46;;;;;;;10.15;2.80;;;10.00;81.30;;;;;;5040399;28;20060;-79
2021/03/28 09:02:41;;;;;;;16.75;4.00;;;10.10;80.40;;;;;;5014769;28;20037;-79
2021/03/28 09:05:30;;;;;;;17.85;3.60;;;10.10;80.80;;;;;;5027375;28;20127;-79
2021/03/28 09:08:18;;;;;;;12.10;2.80;;;10.10;80.80;;;;;;5028981;28;20116;-79
2021/03/28 09:11:21;;;;;;;17.33;2.95;;;10.10;80.90;;;;;;5025983;28;20345;-79
2021/03/28 09:14:17;;;;;;;10.75;3.15;;;10.20;80.40;;;;;;5021256;28;20048;-78
2021/03/28 09:17:12;;;;;;;13.38;3.40;;;10.30;80.00;;;;;;5025958;28;20095;-79
2021/03/28 09:20:13;;;;;;;20.60;2.90;;;10.50;79.80;;;;;;5012445;28;20087;-79
2021/03/28 09:23:03;;;;;;;20.48;3.05;;;10.70;77.10;;;;;;4983616;28;20085;-80
2021/03/28 09:25:40;;;;;;;11.93;2.78;;;10.80;76.50;;;;;;5037498;28;20446;-78
2021/03/28 09:28:24;;;;;;;12.60;2.97;;;11.00;76.50;;;;;;5043284;28;20041;-79
2021/03/28 09:31:08;;;;;;;15.93;2.80;;;11.10;75.90;;;;;;5050077;28;20115;-80
2021/03/28 09:33:43;;;;;;;16.02;3.10;;;11.20;75.50;;;;;;5051894;28;20055;-81
2021/03/28 09:36:24;;;;;;;9.18;2.40;;;11.30;74.90;;;;;;5030838;28;20038;-80
2021/03/28 09:39:18;;;;;;;8.93;2.65;;;11.50;73.30;;;;;;5037608;28;20033;-79
2021/03/28 09:41:44;;;;;;;13.32;2.63;;;11.50;72.00;;;;;;5039992;28;20049;-79
2021/03/28 09:44:35;;;;;;;11.30;2.70;;;11.60;72.70;;;;;;5043027;28;20415;-79
2021/03/28 09:47:16;;;;;;;9.40;2.80;;;11.70;72.50;;;;;;5048105;28;20090;-79
2021/03/28 09:50:08;;;;;;;11.23;1.90;;;11.90;70.30;;;;;;5048219;28;20033;-78
2021/03/28 09:52:52;;;;;;;9.63;2.47;;;12.00;67.90;;;;;;5029903;28;20492;-79
2021/03/28 09:55:42;;;;;;;10.95;2.38;;;12.00;67.50;;;;;;5032236;28;20071;-79
2021/03/28 09:58:39;;;;;;;11.70;2.90;;;12.00;67.30;;;;;;5037758;28;20041;-80
2021/03/28 10:01:39;;;;;;;10.98;2.30;;;12.10;67.00;;;;;;5035664;28;20038;-79
2021/03/28 10:04:23;;;;;;;12.93;2.45;;;12.20;65.20;;;;;;5036836;28;20373;-77
2021/03/28 10:07:03;;;;;;;7.45;2.08;;;12.30;66.30;;;;;;5039888;28;20493;-78
2021/03/28 10:09:37;;;;;;;7.40;2.35;;;12.30;65.30;;;;;;5041641;28;20499;-80
2021/03/28 10:12:23;;;;;;;10.02;2.58;;;12.40;63.60;;;;;;5042060;28;20042;-80
2021/03/28 10:14:52;;;;;;;8.20;2.38;;;12.30;63.80;;;;;;5041188;28;20076;-83
2021/03/28 10:17:35;;;;;;;9.82;1.98;;;12.40;64.10;;;;;;5044245;28;20135;-77
2021/03/28 10:20:19;;;;;;;12.75;2.42;;;12.30;62.50;;;;;;5042119;28;20055;-78
2021/03/28 10:22:53;;;;;;;13.38;2.60;;;12.30;63.60;;;;;;5034618;28;20033;-79
2021/03/28 10:25:27;;;;;;;7.43;2.17;;;12.00;65.30;;;;;;5042637;28;20064;-78
2021/03/28 10:28:10;;;;;;;6.57;1.90;;;11.80;65.50;;;;;;5034287;28;20029;-80
2021/03/28 10:30:55;;;;;;;;;;;11.60;65.90;;;;;;5021975;28;20633;-80
2021/03/28 10:33:36;;;;;;;6.90;2.20;;;11.40;65.90;;;;;;5040748;28;20140;-78
2021/03/28 10:36:24;;;;;;;9.27;2.28;;;11.50;65.60;;;;;;5040192;28;20040;-80
2021/03/28 10:39:15;;;;;;;10.60;3.13;;;11.50;65.90;;;;;;5032370;28;20100;-78
2021/03/28 10:41:46;;;;;;;10.57;2.55;;;11.60;65.00;;;;;;5044237;28;20041;-79
2021/03/28 10:44:47;;;;;;;9.32;2.53;;;11.70;65.80;;;;;;5038852;28;20064;-80
2021/03/28 10:47:24;;;;;;;8.48;2.60;;;11.80;65.50;;;;;;5033882;28;20420;-81
2021/03/28 10:50:18;;;;;;;11.10;2.97;;;11.80;66.50;;;;;;5046251;28;20040;-80
2021/03/28 10:53:05;;;;;;;12.05;2.58;;;11.90;66.60;;;;;;5044488;28;20314;-80
2021/03/28 10:55:56;;;;;;;11.50;3.30;;;11.80;66.50;;;;;;5045153;28;20124;-79
2021/03/28 10:58:40;;;;;;;11.65;3.00;;;11.50;68.40;;;;;;5038762;28;20029;-79
2021/03/28 11:01:43;;;;;;;13.52;3.47;;;11.20;71.20;;;;;;5035257;28;20033;-79
2021/03/28 11:04:43;;;;;;;21.87;3.80;;;10.70;74.80;;;;;;5034067;28;20091;-81
2021/03/28 11:07:41;;;;;;;13.45;3.80;;;10.30;76.80;;;;;;5036834;28;20076;-80
2021/03/28 11:10:54;;;;;;;11.93;3.20;;;10.00;78.00;;;;;;5040067;28;20211;-78
2021/03/28 11:14:04;;;;;;;7.63;2.72;;;9.80;80.20;;;;;;5032880;28;20121;-79
2021/03/28 11:16:49;;;;;;;12.85;3.60;;;9.70;80.50;;;;;;5037650;28;20563;-81
2021/03/28 11:19:52;;;;;;;14.05;3.47;;;9.70;81.40;;;;;;5028286;28;20423;-81
2021/03/28 11:22:21;;;;;;;11.30;3.25;;;9.80;81.70;;;;;;5039609;28;20457;-82
2021/03/28 11:25:16;;;;;;;15.50;3.33;;;9.80;82.30;;;;;;5035752;28;20055;-80
2021/03/28 11:27:54;;;;;;;17.02;3.53;;;10.00;83.30;;;;;;5035517;28;20095;-80
2021/03/28 11:30:41;;;;;;;11.27;3.03;;;10.10;83.60;;;;;;5035169;28;20037;-82
2021/03/28 11:33:39;;;;;;;12.93;3.10;;;10.10;82.60;;;;;;5035358;28;20103;-80
2021/03/28 11:36:22;;;;;;;15.93;3.70;;;10.10;83.40;;;;;;5024583;28;20050;-79
2021/03/28 11:39:26;;;;;;;13.88;3.25;;;10.10;83.30;;;;;;5031185;28;20071;-80
2021/03/28 11:41:57;;;;;;;9.60;2.90;;;10.10;83.20;;;;;;5035484;28;20033;-80
2021/03/28 11:44:45;;;;;;;19.02;3.35;;;10.10;83.30;;;;;;5042805;28;20047;-79
2021/03/28 11:47:20;;;;;;;14.13;3.28;;;10.10;82.90;;;;;;5025802;28;20053;-80
2021/03/28 11:50:25;;;;;;;16.08;3.20;;;10.00;82.50;;;;;;5042033;28;20504;-81
2021/03/28 11:52:54;;;;;;;11.05;2.50;;;9.90;83.00;;;;;;5036489;28;20035;-79
2021/03/28 11:55:41;;;;;;;16.00;3.20;;;9.90;82.80;;;;;;5046813;28;20037;-78
2021/03/28 11:58:12;;;;;;;13.32;3.40;;;9.80;83.40;;;;;;5039465;28;20479;-78
2021/03/28 12:00:44;;;;;;;12.65;3.33;;;9.70;84.20;;;;;;5046794;28;20047;-82
2021/03/28 12:03:19;;;;;;;16.17;3.42;;;9.60;84.50;;;;;;5044285;28;20051;-78
2021/03/28 12:06:00;;;;;;;12.77;3.67;;;9.60;84.80;;;;;;5039973;28;20034;-79
2021/03/28 12:08:39;;;;;;;17.83;4.15;;;9.50;85.60;;;;;;5030393;28;20499;-78
2021/03/28 12:11:33;;;;;;;18.30;4.25;;;9.50;86.20;;;;;;5026441;28;20559;-78
2021/03/28 12:14:34;;;;;;;20.23;4.40;;;9.50;86.80;;;;;;5043448;28;20037;-79
2021/03/28 12:17:09;;;;;;;16.13;4.18;;;9.60;87.20;;;;;;5033802;28;20576;-78
2021/03/28 12:19:47;;;;;;;14.60;3.67;;;9.60;86.90;;;;;;5050149;28;20036;-81
2021/03/28 12:22:32;;;;;;;16.95;3.80;;;9.60;86.80;;;;;;5015486;28;20393;-79
2021/03/28 12:25:18;;;;;;;14.30;3.75;;;9.60;87.40;;;;;;5049073;28;20403;-84
2021/03/28 12:28:24;;;;;;;14.95;4.13;;;9.60;87.50;;;;;;5025840;28;20049;-79
2021/03/28 12:30:49;;;;;;;15.77;4.15;;;9.50;87.60;;;;;;5043507;28;20061;-79
2021/03/28 12:33:18;;;;;;;17.38;4.85;;;9.50;87.80;;;;;;5041248;28;20541;-81
2021/03/28 12:35:46;;;;;;;20.42;5.03;;;9.50;88.30;;;;;;5042032;28;20041;-79
2021/03/28 12:38:19;;;;;;;18.75;4.88;;;9.40;89.20;;;;;;5038552;28;20476;-80
2021/03/28 12:40:46;;;;;;;21.13;5.45;;;9.40;89.90;;;;;;5037838;28;20065;-79
2021/03/28 12:43:34;;;;;;;12.35;4.28;;;9.40;90.00;;;;;;5045763;28;20054;-79
2021/03/28 12:46:26;;;;;;;18.40;4.90;;;9.30;90.40;;;;;;5038978;28;20116;-78
2021/03/28 12:49:11;;;;;;;11.05;4.55;;;9.40;90.50;;;;;;5028875;28;20529;-82
2021/03/28 12:51:45;;;;;;;16.42;5.45;;;9.30;90.80;;;;;;5036321;28;20040;-80
2021/03/28 12:54:20;;;;;;;14.18;4.40;;;9.40;90.60;;;;;;5034509;28;20110;-80
2021/03/28 12:56:51;;;;;;;18.52;4.40;;;9.40;90.80;;;;;;5033105;28;20032;-81
2021/03/28 12:59:35;;;;;;;17.10;6.00;;;9.40;90.90;;;;;;5045507;28;20041;-79
2021/03/28 13:02:13;;;;;;;17.83;4.68;;;9.50;91.00;;;;;;5040883;28;20037;-78
2021/03/28 13:04:39;;;;;;;21.85;5.22;;;9.50;90.70;;;;;;5032764;28;20120;-79
2021/03/28 13:07:17;;;;;;;25.23;4.65;;;9.50;90.80;;;;;;5021323;28;20034;-79
2021/03/28 13:09:48;;;;;;;20.58;5.75;;;9.50;90.70;;;;;;5034507;28;20475;-82
2021/03/28 13:12:22;;;;;;;20.52;4.93;;;9.50;90.70;;;;;;5039511;28;20541;-81
2021/03/28 13:14:50;;;;;;;18.23;5.32;;;9.50;90.90;;;;;;5037565;28;20041;-80
2021/03/28 13:17:28;;;;;;;18.98;4.88;;;9.40;90.70;;;;;;5034195;28;20496;-81
2021/03/28 13:20:11;;;;;;;15.57;4.45;;;9.50;90.70;;;;;;5041367;28;20083;-78
2021/03/28 13:22:46;;;;;;;16.00;4.75;;;9.50;90.90;;;;;;5032957;28;20091;-78
2021/03/28 13:25:17;;;;;;;17.92;4.82;;;9.50;91.00;;;;;;5026914;28;20033;-79
2021/03/28 13:28:15;;;;;;;15.75;4.85;;;9.60;90.90;;;;;;5050689;28;20041;-81
2021/03/28 13:30:44;;;;;;;12.63;4.00;;;9.60;90.80;;;;;;5010073;28;20087;-80
2021/03/28 13:33:37;;;;;;;22.83;4.57;;;9.60;90.60;;;;;;5039015;28;20487;-80
2021/03/28 13:36:29;;;;;;;15.15;4.30;;;9.60;90.80;;;;;;5034902;28;20519;-80
2021/03/28 13:39:07;;;;;;;18.05;5.38;;;9.60;90.70;;;;;;5035771;28;20037;-80
2021/03/28 13:41:39;;;;;;;19.63;5.10;;;9.60;90.70;;;;;;5036713;28;20036;-79
2021/03/28 13:44:17;;;;;;;15.82;4.50;;;9.60;91.10;;;;;;5021265;28;20526;-80
2021/03/28 13:46:55;;;;;;;13.88;4.20;;;9.70;90.70;;;;;;5049777;28;20110;-82
2021/03/28 13:49:33;;;;;;;20.13;4.50;;;9.60;90.60;;;;;;5030504;28;20033;-79
2021/03/28 13:52:12;;;;;;;26.17;5.25;;;9.60;90.60;;;;;;5044410;28;20287;-79
2021/03/28 13:54:38;;;;;;;27.13;4.50;;;9.70;90.40;;;;;;5040954;28;20033;-81
2021/03/28 13:57:06;;;;;;;13.90;4.50;;;9.70;90.40;;;;;;5036934;28;20033;-79
2021/03/28 13:59:34;;;;;;;27.10;5.13;;;9.60;90.30;;;;;;5042798;28;20462;-79
2021/03/28 14:02:20;;;;;;;17.25;4.40;;;9.60;90.30;;;;;;5047269;28;20178;-80
2021/03/28 14:05:05;;;;;;;16.10;4.40;;;9.60;90.40;;;;;;5037275;28;20033;-79
2021/03/28 14:07:41;;;;;;;17.75;4.55;;;9.60;90.20;;;;;;5027181;28;20061;-80
2021/03/28 14:10:33;;;;;;;19.73;4.60;;;9.60;90.20;;;;;;5033956;28;20037;-79
2021/03/28 14:13:23;;;;;;;15.70;3.80;;;9.60;90.30;;;;;;5043700;28;20261;-80
2021/03/28 14:16:01;;;;;;;13.30;4.35;;;9.60;90.40;;;;;;5035163;28;20515;-81
2021/03/28 14:18:46;;;;;;;22.80;5.75;;;9.70;90.40;;;;;;5031740;28;20025;-79
2021/03/28 14:21:26;;;;;;;17.70;5.20;;;9.60;90.40;;;;;;5033908;28;20034;-79